Time;durP1;ratioP1;P1;durP2;ratioP2;P2;SDS_P1;SDS_P2;PMS_P1;PMS_P2;Temp;Humidity;BMP_temperature;BMP_pressure;BME280_temperature;BME280_humidity;BME280_pressure;Samples;Min_cycle;Max_cycle;Signal;HPM_P1;HPM_P2
2022/09/24 00:01:37;;;;;;;9.53;5.20;;;16.80;82.30;;;17.27;51.81;98401.44;4984158;28;122813;-74
2022/09/24 00:04:07;;;;;;;11.17;4.70;;;16.80;82.30;;;17.27;51.88;98395.06;4968965;28;115030;-74
2022/09/24 00:06:43;;;;;;;8.17;4.47;;;16.80;82.40;;;17.25;51.74;98389.03;4974488;28;113908;-73
2022/09/24 00:09:18;;;;;;;7.17;4.30;;;16.80;82.50;;;17.24;51.82;98391.00;4986295;28;123794;-73
2022/09/24 00:11:44;;;;;;;6.83;4.20;;;16.80;82.60;;;17.23;52.07;98390.22;4984826;28;123917;-73
2022/09/24 00:14:11;;;;;;;6.57;4.40;;;16.80;82.70;;;17.22;52.07;98387.78;4976975;28;114578;-73
2022/09/24 00:16:39;;;;;;;10.60;5.40;;;16.80;82.80;;;17.20;52.07;98393.75;4986235;28;114015;-74
2022/09/24 00:19:05;;;;;;;6.17;4.60;;;16.70;82.80;;;17.18;52.20;98387.72;4986840;28;124049;-74
2022/09/24 00:21:34;;;;;;;6.67;4.90;;;16.80;82.90;;;17.16;52.20;98384.47;4987139;28;123946;-74
2022/09/24 00:26:48;;;;;;;7.93;5.30;;;16.90;83.20;;;17.14;52.33;98386.84;4989366;28;113442;-73
2022/09/24 00:26:59;;;;;;;9.13;5.20;;;16.70;83.90;;;17.11;52.41;98387.53;4990821;28;113967;-73
2022/09/24 00:29:26;;;;;;;8.47;4.93;;;16.70;83.30;;;17.09;52.49;98381.53;4974686;28;124186;-73
2022/09/24 00:31:53;;;;;;;8.30;5.77;;;16.60;83.40;;;17.08;52.67;98381.91;4973657;28;123894;-74
2022/09/24 00:34:20;;;;;;;7.47;5.10;;;16.60;83.50;;;17.04;52.68;98375.44;4987463;28;114238;-74
2022/09/24 00:36:47;;;;;;;8.40;5.53;;;16.60;83.70;;;16.99;53.12;98382.13;4983383;28;113772;-75
2022/09/24 00:39:14;;;;;;;8.00;5.17;;;16.60;83.90;;;16.96;52.90;98383.66;4983471;28;124145;-74
2022/09/24 00:41:46;;;;;;;7.43;4.67;;;16.50;84.00;;;16.95;53.17;98378.41;4968820;28;123865;-73
2022/09/24 00:44:38;;;;;;;6.60;3.83;;;16.50;84.20;;;16.95;53.00;98384.00;4986321;28;115683;-74
2022/09/24 00:47:04;;;;;;;7.00;4.57;;;16.50;84.30;;;16.94;52.98;98374.81;4987639;28;114345;-74
2022/09/24 00:49:31;;;;;;;8.70;4.87;;;16.50;84.30;;;16.95;53.01;98375.63;4979161;28;124239;-73
2022/09/24 00:51:57;;;;;;;6.27;4.73;;;16.80;84.70;;;16.95;53.17;98367.25;4983819;28;123596;-73
2022/09/24 00:54:27;;;;;;;5.70;4.10;;;16.40;84.40;;;16.96;53.03;98360.53;4987197;28;114291;-73
2022/09/24 00:56:57;;;;;;;7.20;4.70;;;16.50;84.60;;;16.95;53.32;98354.13;4979737;28;114244;-73
2022/09/24 00:59:25;;;;;;;9.53;4.40;;;16.50;84.60;;;16.95;53.25;98345.75;4975690;28;124000;-72
2022/09/24 01:01:56;;;;;;;7.70;4.90;;;16.50;84.70;;;16.95;53.26;98340.19;4978042;28;123727;-73
2022/09/24 01:04:24;;;;;;;8.70;4.37;;;16.50;84.70;;;16.93;53.37;98336.13;4976063;28;114330;-72
2022/09/24 01:06:51;;;;;;;6.33;4.10;;;16.50;84.80;;;16.93;53.34;98350.09;4983687;28;113983;-75
2022/09/24 01:09:20;;;;;;;8.90;4.93;;;16.50;84.80;;;16.90;53.23;98339.63;4979427;28;123913;-74
2022/09/24 01:12:28;;;;;;;5.30;3.73;;;16.60;84.90;;;16.87;53.31;98345.97;4986365;28;123829;-73
2022/09/24 01:15:33;;;;;;;6.80;4.10;;;16.40;84.70;;;16.83;52.94;98347.88;4969716;28;114326;-72
2022/09/24 01:18:25;;;;;;;6.20;4.20;;;16.40;84.70;;;16.82;53.32;98341.50;4983785;28;114365;-74
2022/09/24 01:21:39;;;;;;;6.40;4.00;;;16.40;84.70;;;16.78;53.23;98335.00;4981000;28;124472;-74
2022/09/24 01:24:24;;;;;;;14.83;5.30;;;16.40;84.90;;;16.76;53.37;98326.16;4982884;28;123935;-75
2022/09/24 01:27:15;;;;;;;7.60;3.93;;;16.30;84.90;;;16.74;53.39;98332.13;4983347;28;115469;-74
2022/09/24 01:30:12;;;;;;;9.13;4.03;;;16.30;85.00;;;16.72;53.37;98325.28;4971876;28;113159;-74
2022/09/24 01:32:40;;;;;;;9.40;4.70;;;16.30;85.00;;;16.72;53.63;98314.94;4977087;28;123917;-75
2022/09/24 01:35:15;;;;;;;7.97;4.20;;;16.30;85.10;;;16.72;53.56;98314.94;4970380;28;123745;-74
2022/09/24 01:37:48;;;;;;;7.40;4.27;;;16.30;85.20;;;16.72;53.70;98314.13;4984649;28;114595;-73
2022/09/24 01:40:16;;;;;;;5.70;3.60;;;16.30;85.30;;;16.71;53.57;98313.31;4982246;28;114206;-74
2022/09/24 01:42:45;;;;;;;6.77;3.67;;;16.30;85.30;;;16.70;53.67;98311.69;4985346;28;124085;-74
2022/09/24 01:45:13;;;;;;;9.33;4.50;;;16.30;85.40;;;16.69;53.48;98304.50;4981817;28;123747;-73
2022/09/24 01:47:40;;;;;;;6.97;4.00;;;16.20;85.40;;;16.68;53.65;98302.06;4986874;28;115163;-75
2022/09/24 01:50:12;;;;;;;8.80;4.67;;;16.20;85.40;;;16.65;53.52;98303.59;4989648;28;114071;-72
2022/09/24 01:53:02;;;;;;;5.67;4.33;;;16.20;85.50;;;16.62;53.75;98309.91;4972037;28;124133;-74
2022/09/24 01:55:37;;;;;;;7.53;4.30;;;16.20;85.60;;;16.60;53.74;98303.91;4976747;28;123788;-75
2022/09/24 01:58:15;;;;;;;5.93;4.10;;;16.20;85.60;;;16.58;53.75;98300.69;4984773;28;114354;-74
2022/09/24 02:00:46;;;;;;;6.37;4.30;;;16.10;85.70;;;16.55;54.00;98290.25;4972446;28;113076;-73
2022/09/24 02:03:19;;;;;;;7.00;4.57;;;16.20;85.90;;;16.55;53.80;98284.69;4981266;28;124013;-72
2022/09/24 02:06:11;;;;;;;6.47;4.20;;;16.10;85.90;;;16.52;54.10;98296.53;4973431;28;123528;-73
2022/09/24 02:08:45;;;;;;;5.87;4.13;;;16.10;86.00;;;16.51;54.12;98286.56;4973278;28;113309;-74
2022/09/24 02:11:16;;;;;;;7.47;4.77;;;16.10;86.10;;;16.49;54.15;98283.34;4969149;28;113417;-73
2022/09/24 02:14:00;;;;;;;8.13;4.77;;;16.00;86.20;;;16.42;54.44;98294.34;4981654;28;124174;-73
2022/09/24 02:16:43;;;;;;;7.20;5.03;;;16.00;86.60;;;16.37;54.59;98286.25;4975765;28;123645;-73
2022/09/24 02:19:14;;;;;;;6.97;4.93;;;15.90;86.80;;;16.32;54.90;98285.34;4990102;28;114312;-73
2022/09/24 02:21:43;;;;;;;8.60;4.90;;;15.90;87.00;;;16.31;54.98;98286.53;4989290;28;114494;-73
2022/09/24 02:24:15;;;;;;;12.50;5.70;;;15.90;87.30;;;16.32;55.14;98285.34;4990686;28;123628;-74
2022/09/24 02:26:42;;;;;;;8.30;5.50;;;15.90;87.50;;;16.31;55.49;98289.31;4988141;28;123914;-75
2022/09/24 02:29:09;;;;;;;11.27;6.37;;;15.80;87.50;;;16.29;55.18;98290.84;4989722;28;113285;-74
2022/09/24 02:31:40;;;;;;;7.63;5.57;;;17.00;89.00;;;16.27;55.51;98294.00;4988944;28;114041;-74
2022/09/24 02:34:20;;;;;;;9.97;6.03;;;15.80;88.00;;;16.28;55.46;98290.06;4987644;28;123969;-75
2022/09/24 02:37:10;;;;;;;9.83;6.50;;;15.80;88.30;;;16.26;55.47;98297.97;4987280;28;123648;-74
2022/09/24 02:39:37;;;;;;;12.33;6.20;;;15.80;88.40;;;16.26;55.66;98281.25;4978855;28;115191;-74
2022/09/24 02:42:09;;;;;;;10.10;5.73;;;15.80;88.40;;;16.28;55.81;98275.28;4981784;28;114855;-75
2022/09/24 02:44:35;;;;;;;8.83;5.40;;;15.80;88.50;;;16.27;55.68;98277.28;4973093;28;124488;-74
2022/09/24 02:47:03;;;;;;;7.87;5.30;;;15.80;88.60;;;16.27;55.63;98277.28;4986963;28;123726;-74
2022/09/24 02:49:29;;;;;;;8.20;5.40;;;15.80;88.60;;;16.27;55.56;98276.47;4988449;28;114066;-74
2022/09/24 02:51:56;;;;;;;7.10;4.47;;;15.80;88.60;;;16.25;55.24;98274.03;4988958;28;114007;-74
2022/09/24 02:54:23;;;;;;;6.20;4.37;;;15.80;88.50;;;16.23;55.22;98270.81;4982848;28;124117;-74
2022/09/24 02:56:51;;;;;;;7.53;4.83;;;15.80;88.40;;;16.23;55.28;98287.56;4989656;28;123655;-74
2022/09/24 02:59:20;;;;;;;8.93;5.30;;;15.80;88.40;;;16.22;55.16;98288.69;4981948;28;113283;-73
2022/09/24 03:01:47;;;;;;;7.80;5.13;;;15.70;88.40;;;16.19;55.58;98286.63;4970733;28;113980;-74
2022/09/24 03:04:13;;;;;;;7.83;4.80;;;15.70;88.50;;;16.17;55.44;98279.81;4979384;28;124151;-75
2022/09/24 03:06:40;;;;;;;8.17;5.20;;;15.70;89.30;;;16.17;55.49;98282.59;4971410;28;123764;-74
2022/09/24 03:09:07;;;;;;;6.80;4.13;;;16.50;89.40;;;16.16;55.45;98278.22;4988728;28;114249;-75
2022/09/24 03:11:34;;;;;;;9.00;5.20;;;15.70;88.50;;;16.17;55.44;98271.44;4976350;28;114326;-72
2022/09/24 03:14:01;;;;;;;5.13;4.30;;;15.60;88.30;;;16.16;55.29;98273.44;4986961;28;124189;-73
2022/09/24 03:16:27;;;;;;;7.63;5.83;;;15.70;88.40;;;16.18;55.24;98270.28;4973874;28;123908;-74
2022/09/24 03:18:54;;;;;;;9.50;4.77;;;15.70;89.00;;;16.17;55.29;98261.09;4979642;28;114436;-78
2022/09/24 03:21:21;;;;;;;7.80;4.90;;;15.70;88.40;;;16.15;55.35;98260.69;4989044;28;114014;-77
2022/09/24 03:23:48;;;;;;;7.50;4.93;;;16.80;89.60;;;16.12;55.44;98259.44;4986030;28;123285;-74
2022/09/24 03:26:16;;;;;;;9.10;6.07;;;15.70;88.70;;;16.10;55.96;98260.97;4986349;28;123749;-76
2022/09/24 03:28:42;;;;;;;7.63;5.47;;;15.60;88.90;;;16.07;55.85;98256.91;4983845;28;114919;-74
2022/09/24 03:31:09;;;;;;;9.20;6.50;;;15.60;89.10;;;16.07;55.98;98264.47;4983860;28;116092;-74
2022/09/24 03:33:41;;;;;;;9.10;6.07;;;15.60;89.30;;;16.04;56.29;98263.22;4972641;28;124122;-73
2022/09/24 03:36:15;;;;;;;7.10;5.80;;;15.60;89.60;;;16.00;56.13;98258.72;4986775;28;123972;-77
2022/09/24 03:38:44;;;;;;;6.93;5.60;;;15.50;89.70;;;15.97;56.46;98265.03;4973763;28;113386;-77
2022/09/24 03:41:12;;;;;;;9.27;5.90;;;15.80;90.00;;;15.96;56.66;98252.25;4986865;28;114019;-76
2022/09/24 03:43:39;;;;;;;10.80;5.60;;;15.60;90.00;;;15.97;56.44;98257.47;4974766;28;124638;-73
2022/09/24 03:46:07;;;;;;;9.00;5.93;;;15.50;90.00;;;15.99;56.56;98245.97;4986899;28;124845;-74
2022/09/24 03:48:37;;;;;;;6.93;5.30;;;15.50;90.00;;;15.99;56.44;98248.75;4988409;28;114703;-75
2022/09/24 03:51:09;;;;;;;9.30;5.70;;;15.50;90.10;;;15.99;56.59;98244.00;4986937;28;114029;-73
2022/09/24 03:53:35;;;;;;;7.47;4.80;;;15.50;90.10;;;15.99;56.60;98246.78;4984797;28;124649;-74
2022/09/24 03:56:05;;;;;;;8.40;5.80;;;15.50;90.10;;;16.00;56.55;98242.00;4987602;28;123816;-74
2022/09/24 03:58:36;;;;;;;8.00;6.07;;;15.50;90.10;;;16.00;56.63;98250.38;4987397;28;113349;-74
2022/09/24 04:01:03;;;;;;;7.50;5.60;;;15.50;90.10;;;16.00;56.95;98242.81;4984857;28;113978;-73
2022/09/24 04:03:30;;;;;;;9.03;5.67;;;15.50;90.10;;;16.00;56.79;98250.38;4979918;28;123894;-74
2022/09/24 04:05:57;;;;;;;11.63;6.00;;;15.50;90.10;;;16.01;56.76;98246.41;4978817;28;123823;-73
2022/09/24 04:08:24;;;;;;;10.47;6.20;;;15.50;90.20;;;16.00;56.77;98250.38;4983834;28;114042;-74
2022/09/24 04:10:51;;;;;;;7.90;5.90;;;15.50;90.30;;;15.97;56.96;98251.09;4986394;28;114484;-73
2022/09/24 04:13:18;;;;;;;11.70;7.60;;;15.50;90.40;;;15.91;57.01;98258.91;4989907;28;123684;-74
2022/09/24 04:15:45;;;;;;;7.57;5.77;;;15.40;90.50;;;15.83;57.30;98257.94;4986636;28;124030;-74
2022/09/24 04:18:11;;;;;;;8.77;6.23;;;15.30;90.50;;;15.82;57.27;98247.13;4978771;28;115144;-73
2022/09/24 04:20:38;;;;;;;9.00;5.80;;;15.30;90.60;;;15.83;57.38;98241.22;4986085;28;115000;-74
2022/09/24 04:23:05;;;;;;;6.97;5.33;;;15.30;90.60;;;15.83;57.63;98246.78;4984473;28;124654;-74
2022/09/24 04:25:32;;;;;;;7.80;5.27;;;15.30;90.60;;;15.85;57.31;98236.09;4986545;28;124374;-72
2022/09/24 04:28:07;;;;;;;7.83;5.30;;;15.30;90.70;;;15.87;57.28;98244.88;4985029;28;114183;-73
2022/09/24 04:30:35;;;;;;;12.57;6.90;;;15.40;90.70;;;15.87;57.36;98244.09;4981867;28;114849;-75
2022/09/24 04:33:01;;;;;;;7.10;5.40;;;15.40;90.80;;;15.87;57.45;98244.88;4962031;28;123600;-74
2022/09/24 04:35:31;;;;;;;8.83;6.23;;;15.40;90.80;;;15.87;57.31;98241.28;4986479;28;123959;-75
2022/09/24 04:37:59;;;;;;;8.10;5.67;;;15.40;90.80;;;15.89;57.41;98228.63;4981353;28;114281;-74
2022/09/24 04:40:26;;;;;;;8.67;5.10;;;15.40;90.80;;;15.91;57.31;98231.06;4970820;28;114932;-75
2022/09/24 04:42:53;;;;;;;7.37;6.00;;;15.40;90.80;;;15.91;57.69;98219.91;4983377;28;124539;-73
2022/09/24 04:45:20;;;;;;;7.83;5.43;;;15.40;90.80;;;15.90;57.56;98221.91;4968908;28;123622;-75
2022/09/24 04:47:54;;;;;;;7.60;6.23;;;15.50;90.80;;;15.92;57.51;98220.72;4984750;28;114430;-76
2022/09/24 04:50:25;;;;;;;12.90;5.73;;;15.40;90.80;;;15.90;57.51;98218.28;4982483;28;114402;-73
2022/09/24 04:52:53;;;;;;;7.70;6.10;;;15.40;90.80;;;15.90;57.39;98227.47;4987792;28;124256;-75
2022/09/24 04:55:22;;;;;;;6.23;5.27;;;15.40;90.80;;;15.88;57.52;98224.22;4974615;28;124741;-73
2022/09/24 04:57:49;;;;;;;7.80;5.60;;;15.40;90.80;;;15.88;57.34;98221.44;4989782;28;114319;-74
2022/09/24 05:00:19;;;;;;;7.27;5.90;;;15.40;90.80;;;15.90;57.34;98229.44;4982204;28;115680;-74
2022/09/24 05:02:46;;;;;;;8.73;5.67;;;15.40;90.90;;;15.87;57.43;98219.81;4984107;28;124160;-74
2022/09/24 05:05:13;;;;;;;6.87;5.63;;;15.40;90.90;;;15.85;57.62;98222.16;4960500;28;122657;-74
2022/09/24 05:07:40;;;;;;;9.77;5.80;;;15.30;90.90;;;15.85;57.47;98222.16;4983723;28;115117;-74
2022/09/24 05:10:07;;;;;;;8.07;6.13;;;15.50;91.00;;;15.85;57.56;98222.16;4987753;28;115211;-74
2022/09/24 05:12:35;;;;;;;10.27;5.80;;;15.30;90.90;;;15.86;57.46;98223.78;4981855;28;124201;-74
2022/09/24 05:15:02;;;;;;;7.93;5.30;;;15.30;91.00;;;15.87;57.75;98224.56;4987343;28;123502;-73
2022/09/24 05:17:29;;;;;;;9.97;5.97;;;15.30;91.00;;;15.85;57.81;98229.69;4976080;28;113705;-74
2022/09/24 05:19:56;;;;;;;6.43;5.30;;;15.30;91.10;;;15.83;57.82;98241.22;4973131;28;113922;-74
2022/09/24 05:22:26;;;;;;;7.33;5.40;;;15.30;91.20;;;15.85;57.76;98238.88;4980871;28;124221;-74
2022/09/24 05:24:53;;;;;;;11.27;6.50;;;15.40;91.20;;;15.85;57.85;98238.06;4971083;28;122463;-74
2022/09/24 05:27:20;;;;;;;8.60;5.47;;;15.30;91.10;;;15.85;57.72;98236.09;4983375;28;114348;-74
2022/09/24 05:29:47;;;;;;;9.57;6.97;;;15.30;91.10;;;15.85;57.80;98238.88;4982385;28;114432;-74
2022/09/24 05:32:16;;;;;;;8.30;6.53;;;15.60;91.30;;;15.81;57.73;98246.34;4980260;28;123870;-73
2022/09/24 05:34:44;;;;;;;8.87;5.50;;;15.30;91.20;;;15.80;57.93;98239.16;4982497;28;124152;-76
2022/09/24 05:37:11;;;;;;;8.60;6.33;;;15.50;91.40;;;15.79;58.10;98237.53;4982271;28;113949;-74
2022/09/24 05:39:38;;;;;;;8.27;5.53;;;15.30;91.30;;;15.78;58.10;98244.28;4982490;28;113818;-75
2022/09/24 05:42:06;;;;;;;8.50;5.80;;;15.30;91.40;;;15.77;58.15;98241.84;4981465;28;124364;-74
2022/09/24 05:44:33;;;;;;;9.43;6.47;;;15.30;91.40;;;15.75;58.26;98247.78;4985526;28;123907;-73
2022/09/24 05:46:59;;;;;;;8.50;6.13;;;15.40;91.50;;;15.75;58.26;98256.16;4986088;28;114259;-75
2022/09/24 05:49:26;;;;;;;8.80;5.87;;;15.20;91.40;;;15.74;58.12;98254.50;4984019;28;114131;-81
2022/09/24 05:51:52;;;;;;;12.07;7.10;;;15.40;91.50;;;15.76;58.24;98257.75;4979931;28;124441;-74
2022/09/24 05:54:19;;;;;;;8.27;6.83;;;15.40;91.50;;;15.77;58.22;98253.81;4982410;28;123925;-73
2022/09/24 05:56:46;;;;;;;12.17;6.60;;;15.30;91.50;;;15.77;58.27;98256.59;4975946;28;115216;-82
2022/09/24 05:59:12;;;;;;;13.33;6.20;;;15.30;91.50;;;15.78;58.27;98261.00;4970058;28;116024;-76
2022/09/24 06:01:39;;;;;;;8.30;5.60;;;15.30;91.50;;;15.80;58.18;98258.66;4983425;28;123929;-74
2022/09/24 06:04:06;;;;;;;9.83;5.80;;;15.30;91.50;;;15.82;58.21;98261.88;4980884;28;123797;-75
2022/09/24 06:06:33;;;;;;;9.40;6.10;;;15.30;91.50;;;15.84;58.15;98258.72;4977686;28;114090;-74
2022/09/24 06:08:59;;;;;;;7.30;5.70;;;15.30;91.50;;;15.85;58.02;98261.19;4973796;28;113989;-74
2022/09/24 06:11:26;;;;;;;9.50;6.80;;;17.00;92.20;;;15.88;58.17;98265.22;4976625;28;124428;-75
2022/09/24 06:13:53;;;;;;;7.63;5.80;;;15.30;91.50;;;15.88;58.28;98257.66;4971875;28;124433;-74
2022/09/24 06:16:19;;;;;;;8.43;5.77;;;16.30;92.00;;;15.89;58.10;98264.84;4969474;28;113385;-73
2022/09/24 06:18:46;;;;;;;8.87;6.60;;;15.40;91.60;;;15.86;58.27;98257.22;4971882;28;113644;-76
2022/09/24 06:21:16;;;;;;;7.57;6.30;;;15.30;91.70;;;15.76;58.55;98256.94;4967383;28;124832;-75
2022/09/24 06:23:46;;;;;;;11.37;7.47;;;15.30;91.80;;;15.73;58.65;98264.03;4977024;28;122991;-74
2022/09/24 06:26:13;;;;;;;7.90;6.23;;;15.20;92.10;;;15.71;58.46;98265.56;4975231;28;114595;-74
2022/09/24 06:28:40;;;;;;;7.10;5.60;;;15.10;91.90;;;15.72;58.70;98270.00;4967671;28;114118;-75
2022/09/24 06:31:08;;;;;;;11.60;6.40;;;15.30;92.00;;;15.76;58.57;98268.88;4960439;28;123119;-74
2022/09/24 06:33:36;;;;;;;9.70;5.90;;;15.40;92.00;;;15.79;58.60;98267.38;4969853;28;123687;-75
2022/09/24 06:36:04;;;;;;;8.80;5.60;;;15.20;91.90;;;15.83;58.57;98279.41;4975019;28;114506;-75
2022/09/24 06:38:30;;;;;;;7.80;5.97;;;15.20;91.90;;;15.89;58.38;98284.34;4971295;28;114084;-76
2022/09/24 06:41:03;;;;;;;8.20;6.03;;;15.30;92.20;;;15.95;58.17;98281.28;4974311;28;124378;-73
2022/09/24 06:43:31;;;;;;;8.20;5.40;;;15.40;91.90;;;16.00;58.16;98283.81;4958518;28;124159;-77
2022/09/24 06:45:59;;;;;;;7.93;5.20;;;15.40;91.80;;;16.04;57.96;98290.25;4985911;28;115973;-74
2022/09/24 06:48:27;;;;;;;8.57;5.90;;;15.60;91.80;;;16.08;57.99;98291.16;4983265;28;115687;-75
2022/09/24 06:50:55;;;;;;;7.80;6.00;;;15.60;91.80;;;16.12;58.17;98280.91;4979371;28;124275;-74
2022/09/24 06:53:21;;;;;;;9.13;5.67;;;15.50;91.70;;;16.16;57.78;98283.78;4983323;28;123914;-74
2022/09/24 06:55:48;;;;;;;8.90;5.80;;;15.60;91.70;;;16.19;57.50;98281.06;4985113;28;114307;-76
2022/09/24 06:58:20;;;;;;;7.20;5.67;;;15.60;91.60;;;16.22;57.60;98291.50;4981006;28;114242;-74
2022/09/24 07:00:59;;;;;;;9.13;5.77;;;15.60;91.60;;;16.26;57.59;98286.00;4982185;28;125737;-74
2022/09/24 07:03:28;;;;;;;8.70;6.27;;;15.70;91.60;;;16.27;57.49;98285.63;4978667;28;124289;-74
2022/09/24 07:05:59;;;;;;;8.27;5.13;;;15.70;91.50;;;16.29;57.53;98285.28;4978488;28;114535;-74
2022/09/24 07:08:25;;;;;;;6.70;4.70;;;15.70;91.50;;;16.33;57.42;98286.16;4982605;28;114041;-74
2022/09/24 07:10:52;;;;;;;9.60;5.97;;;15.70;91.50;;;16.35;57.43;98290.19;4979543;28;127045;-74
2022/09/24 07:13:22;;;;;;;9.80;5.23;;;15.70;91.40;;;16.39;57.36;98292.25;4979221;28;124245;-74
2022/09/24 07:15:52;;;;;;;6.80;4.80;;;15.80;91.50;;;16.41;57.26;98304.66;4968942;28;114206;-75
2022/09/24 07:18:19;;;;;;;7.20;5.17;;;15.80;91.50;;;16.45;57.32;98288.03;4984158;28;113718;-73
2022/09/24 07:20:54;;;;;;;6.87;5.10;;;15.90;91.50;;;16.51;57.27;98292.16;4977838;28;123946;-75
2022/09/24 07:23:21;;;;;;;8.53;5.63;;;15.90;91.50;;;16.54;56.93;98299.78;4979702;28;124079;-74
2022/09/24 07:25:49;;;;;;;10.70;5.83;;;15.90;91.40;;;16.57;57.10;98299.03;4980979;28;113197;-74
2022/09/24 07:28:16;;;;;;;6.40;5.00;;;16.00;91.40;;;16.59;56.94;98307.88;4997558;28;113691;-75
2022/09/24 07:30:42;;;;;;;8.83;5.80;;;16.00;91.30;;;16.61;56.69;98307.50;4975961;28;123396;-72
2022/09/24 07:33:09;;;;;;;9.60;5.77;;;16.00;91.30;;;16.63;56.69;98316.31;4978820;28;124343;-74
2022/09/24 07:35:39;;;;;;;7.93;6.27;;;16.00;91.30;;;16.65;56.82;98309.19;4979198;28;115313;-78
2022/09/24 07:38:13;;;;;;;10.03;5.87;;;16.10;91.30;;;16.65;56.79;98316.75;4966759;28;113967;-73
2022/09/24 07:40:39;;;;;;;9.83;5.93;;;16.10;91.30;;;16.67;56.78;98318.00;4983095;28;122906;-75
2022/09/24 07:43:11;;;;;;;9.90;5.60;;;16.10;91.30;;;16.72;56.62;98323.31;4978986;28;124114;-73
2022/09/24 07:45:37;;;;;;;6.90;5.27;;;16.10;91.30;;;16.76;56.54;98315.00;4982096;28;113881;-73
2022/09/24 07:48:05;;;;;;;7.57;5.60;;;16.10;91.20;;;16.80;56.54;98320.72;4964848;28;114726;-76
2022/09/24 07:50:38;;;;;;;8.60;5.33;;;16.20;91.20;;;16.84;56.51;98318.78;4974987;28;124686;-74
2022/09/24 07:53:05;;;;;;;13.77;6.47;;;16.20;91.20;;;16.87;56.60;98323.63;4980878;28;123814;-73
2022/09/24 07:55:38;;;;;;;9.40;5.80;;;16.30;91.20;;;16.89;56.55;98324.09;4981135;28;114264;-71
2022/09/24 07:58:04;;;;;;;11.50;5.80;;;16.30;91.20;;;16.91;56.71;98321.75;4980913;28;114827;-74
2022/09/24 08:00:31;;;;;;;10.00;5.97;;;16.30;91.20;;;16.91;56.40;98321.75;4976504;28;123980;-75
2022/09/24 08:02:58;;;;;;;8.23;6.10;;;16.30;91.20;;;16.92;56.42;98331.72;4980552;28;123071;-75
2022/09/24 08:05:27;;;;;;;8.83;5.97;;;16.30;91.20;;;16.93;56.62;98316.59;4981028;28;114112;-75
2022/09/24 08:07:55;;;;;;;9.17;7.00;;;16.40;91.30;;;16.95;56.58;98322.59;4979827;28;113888;-76
2022/09/24 08:10:23;;;;;;;8.33;6.17;;;16.40;91.20;;;16.95;56.46;98317.84;4980425;28;124386;-74
2022/09/24 08:12:50;;;;;;;12.20;6.00;;;16.30;91.20;;;16.96;56.60;98329.81;4980740;28;123758;-74
2022/09/24 08:15:17;;;;;;;10.10;6.13;;;16.30;91.20;;;16.97;56.57;98323.06;4978185;28;114074;-80
2022/09/24 08:17:44;;;;;;;9.00;6.43;;;16.40;91.20;;;16.96;56.60;98330.63;4980945;28;114334;-72
2022/09/24 08:20:11;;;;;;;9.43;7.07;;;16.40;91.20;;;16.95;56.53;98328.19;4974843;28;124628;-77
2022/09/24 08:22:37;;;;;;;13.60;7.33;;;16.40;91.20;;;16.94;56.58;98326.59;4978933;28;124752;-74
2022/09/24 08:25:05;;;;;;;9.90;7.13;;;16.30;91.20;;;16.94;56.44;98332.16;4978807;28;116083;-74
2022/09/24 08:27:31;;;;;;;10.10;6.97;;;16.30;91.20;;;16.94;56.68;98332.16;4977676;28;115478;-74
2022/09/24 08:29:59;;;;;;;9.33;6.20;;;16.30;91.20;;;16.95;56.74;98336.56;4963015;28;123188;-73
2022/09/24 08:32:28;;;;;;;7.67;5.93;;;16.30;91.20;;;16.96;56.74;98341.00;4982894;28;122675;-73
2022/09/24 08:34:54;;;;;;;7.97;6.90;;;16.30;91.30;;;16.97;56.90;98332.22;4980777;28;114371;-74
2022/09/24 08:37:21;;;;;;;8.60;6.17;;;16.40;91.30;;;17.00;56.75;98341.84;4977079;28;113829;-73
2022/09/24 08:39:48;;;;;;;9.50;6.27;;;16.40;91.30;;;17.05;56.53;98338.78;4983493;28;124936;-74
2022/09/24 08:42:45;;;;;;;15.40;7.17;;;16.40;91.30;;;17.11;56.57;98342.06;4979634;28;123904;-73
2022/09/24 08:48:20;;;;;;;8.30;5.50;;;16.50;91.40;;;17.25;56.57;98335.97;4979178;28;114418;-76
2022/09/24 08:50:59;;;;;;;8.80;5.60;;;16.60;91.40;;;17.35;56.17;98340.97;4981624;28;124097;-73
2022/09/24 08:53:52;;;;;;;7.70;5.80;;;16.70;91.40;;;17.43;56.32;98339.94;4980019;28;122912;-73
2022/09/24 08:56:25;;;;;;;7.33;5.67;;;16.80;91.40;;;17.52;56.22;98331.34;4978003;28;114266;-74
2022/09/24 08:59:23;;;;;;;8.80;5.70;;;16.80;91.30;;;17.61;56.11;98338.28;4964539;28;113285;-77
2022/09/24 09:02:12;;;;;;;7.60;6.00;;;16.90;91.30;;;17.71;56.00;98333.28;4972815;28;123857;-72
2022/09/24 09:05:08;;;;;;;7.20;5.50;;;17.00;91.30;;;17.76;55.73;98338.53;4977112;28;124130;-72
2022/09/24 09:08:17;;;;;;;8.63;5.93;;;17.20;91.30;;;17.81;55.81;98335.47;4981326;28;113771;-73
2022/09/24 09:10:44;;;;;;;10.13;5.87;;;17.20;91.20;;;17.88;55.68;98339.19;4975109;28;113841;-72
2022/09/24 09:13:24;;;;;;;6.80;5.00;;;17.30;91.20;;;17.94;55.79;98328.50;4979791;28;124267;-73
2022/09/24 09:16:06;;;;;;;6.00;5.10;;;17.30;91.20;;;18.01;55.63;98325.84;4980940;28;122694;-74
2022/09/24 09:18:38;;;;;;;7.10;4.50;;;17.40;91.10;;;18.09;55.34;98326.78;4979382;28;114651;-75
2022/09/24 09:21:40;;;;;;;7.23;4.47;;;17.40;91.10;;;18.16;55.26;98329.69;4976894;28;115461;-71
2022/09/24 09:24:17;;;;;;;8.17;5.03;;;17.50;91.00;;;18.23;55.09;98334.59;4976784;28;124271;-70
2022/09/24 09:26:53;;;;;;;4.70;3.50;;;17.60;91.00;;;18.27;55.07;98341.06;4974913;28;123858;-73
2022/09/24 09:29:24;;;;;;;5.60;4.37;;;17.70;90.90;;;18.31;54.93;98330.72;4981695;28;114352;-74
2022/09/24 09:32:26;;;;;;;5.27;3.43;;;17.70;90.80;;;18.36;54.89;98335.19;4985009;28;113931;-72
2022/09/24 09:35:29;;;;;;;5.17;3.30;;;17.80;90.80;;;18.41;54.73;98340.47;4963046;28;124605;-73
2022/09/24 09:38:23;;;;;;;3.77;3.20;;;17.80;90.80;;;18.43;54.89;98344.50;4987595;28;123502;-73
2022/09/24 09:41:05;;;;;;;3.43;3.07;;;17.80;90.80;;;18.45;55.05;98335.72;4981886;28;114314;-72
2022/09/24 09:43:32;;;;;;;3.53;2.30;;;17.90;90.80;;;18.47;55.01;98334.16;4982936;28;113623;-71
2022/09/24 09:46:22;;;;;;;3.00;2.40;;;18.10;90.90;;;18.47;55.28;98330.56;4982775;28;124096;-73
2022/09/24 09:48:54;;;;;;;4.13;2.17;;;17.90;90.90;;;18.46;55.57;98326.16;4976198;28;123798;-75
2022/09/24 09:51:25;;;;;;;4.77;2.33;;;18.00;91.10;;;18.45;55.68;98333.72;4979169;28;114752;-74
2022/09/24 09:54:00;;;;;;;3.10;2.20;;;17.90;91.10;;;18.47;55.63;98328.56;4979871;28;113890;-73
2022/09/24 09:56:56;;;;;;;2.90;2.30;;;17.90;91.20;;;18.49;55.92;98331.81;4979454;28;123208;-71
2022/09/24 09:59:25;;;;;;;3.80;2.33;;;18.00;91.60;;;18.54;56.00;98327.88;4974236;28;123738;-75
2022/09/24 10:01:54;;;;;;;3.63;2.17;;;18.00;91.40;;;18.56;56.28;98325.50;4983812;28;115143;-74
2022/09/24 10:04:33;;;;;;;4.33;2.50;;;18.00;91.50;;;18.58;56.53;98325.13;4985328;28;114693;-73
2022/09/24 10:07:06;;;;;;;2.90;2.60;;;18.10;91.70;;;18.59;56.84;98319.16;4983450;28;123418;-71
2022/09/24 10:09:32;;;;;;;3.47;2.80;;;18.10;91.80;;;18.61;57.17;98321.56;4975602;28;124840;-71
2022/09/24 10:12:21;;;;;;;3.00;2.30;;;18.10;91.90;;;18.60;56.97;98331.16;4977843;28;115257;-77
2022/09/24 10:15:17;;;;;;;3.57;2.40;;;18.10;92.00;;;18.57;57.23;98327.13;4985482;28;115205;-75
2022/09/24 10:17:48;;;;;;;3.07;2.07;;;18.10;92.00;;;18.56;57.46;98331.09;4983175;28;123883;-69
2022/09/24 10:20:32;;;;;;;2.40;2.13;;;18.10;92.10;;;18.55;57.51;98329.50;4981575;28;123940;-73
2022/09/24 10:23:07;;;;;;;2.40;2.13;;;18.10;92.10;;;18.57;57.57;98329.94;4964426;28;113475;-75
2022/09/24 10:25:36;;;;;;;2.70;2.30;;;18.10;92.30;;;18.54;57.58;98328.69;4960871;28;113350;-72
2022/09/24 10:31:02;;;;;;;3.43;2.33;;;18.10;92.30;;;18.53;57.71;98327.06;4978341;28;124566;-72
2022/09/24 10:33:38;;;;;;;3.80;2.83;;;18.10;92.30;;;18.55;57.83;98327.50;4980884;28;114206;-73
2022/09/24 10:36:13;;;;;;;3.10;2.20;;;18.10;92.40;;;18.55;57.92;98330.28;4975620;28;113808;-72
2022/09/24 10:38:40;;;;;;;3.93;2.77;;;18.10;92.40;;;18.54;58.12;98323.09;4983253;28;124884;-72